Time;durP1;ratioP1;P1;durP2;ratioP2;P2;SDS_P1;SDS_P2;PMS_P1;PMS_P2;Temp;Humidity;BMP_temperature;BMP_pressure;BME280_temperature;BME280_humidity;BME280_pressure;Samples;Min_cycle;Max_cycle;Signal;HPM_P1;HPM_P2
2021/04/29 00:01:58;;;;;;;22.63;20.23;;;;;;;14.84;73.96;99759.00;5060622;28;20121;-77
2021/04/29 00:04:25;;;;;;;23.48;19.20;;;;;;;14.82;74.30;99761.75;5064223;28;20446;-78
2021/04/29 00:06:52;;;;;;;23.98;20.80;;;;;;;14.88;74.05;99749.97;5064725;28;20179;-77
2021/04/29 00:09:18;;;;;;;23.20;20.65;;;;;;;14.87;74.03;99751.75;5065880;28;20123;-77
2021/04/29 00:11:44;;;;;;;22.80;20.02;;;;;;;14.84;74.20;99754.59;5064482;28;20036;-78
2021/04/29 00:14:12;;;;;;;22.52;20.13;;;;;;;14.84;74.41;99749.34;5061949;28;20044;-77
2021/04/29 00:16:40;;;;;;;22.50;20.08;;;;;;;14.81;74.56;99746.16;5064354;28;20036;-77
2021/04/29 00:19:08;;;;;;;23.02;20.52;;;;;;;14.81;74.60;99751.41;5065168;28;20040;-75
2021/04/29 00:21:35;;;;;;;20.60;18.42;;;;;;;14.82;74.41;99746.03;5063552;28;20136;-77
2021/04/29 00:24:02;;;;;;;23.38;21.17;;;;;;;14.82;74.56;99745.19;5064852;28;20129;-77
2021/04/29 00:26:28;;;;;;;21.70;19.40;;;;;;;14.92;73.89;99743.53;5062944;28;20462;-77
2021/04/29 00:28:54;;;;;;;24.90;20.20;;;;;;;14.90;73.77;99741.00;5064410;28;20499;-77
2021/04/29 00:31:22;;;;;;;21.98;19.73;;;;;;;14.83;74.35;99745.06;5062293;28;20037;-76
2021/04/29 00:33:49;;;;;;;20.25;18.02;;;;;;;14.88;73.87;99742.09;5061302;28;20069;-76
2021/04/29 00:36:15;;;;;;;19.55;17.48;;;;;;;14.87;74.06;99745.69;5063877;28;20124;-77
2021/04/29 00:38:42;;;;;;;19.98;17.98;;;;;;;14.81;74.44;99751.41;5065572;28;20068;-77
2021/04/29 00:41:09;;;;;;;19.02;17.20;;;;;;;14.88;74.26;99755.22;5064170;28;20192;-75
2021/04/29 00:43:35;;;;;;;21.02;18.83;;;;;;;14.80;74.83;99755.78;5065442;28;20060;-76
2021/04/29 00:46:02;;;;;;;22.70;20.38;;;;;;;14.71;75.66;99758.28;5067964;28;20036;-77
2021/04/29 00:48:29;;;;;;;22.15;18.60;;;;;;;14.72;75.28;99754.69;5066024;28;20036;-77
2021/04/29 00:50:55;;;;;;;31.50;19.98;;;;;;;14.71;74.87;99751.25;5062816;28;20068;-77
2021/04/29 00:53:33;;;;;;;23.00;20.52;;;;;;;14.64;75.10;99753.47;5064393;28;20040;-79
2021/04/29 00:56:00;;;;;;;27.95;22.95;;;;;;;14.70;74.76;99749.56;5066620;28;20036;-79
2021/04/29 00:58:26;;;;;;;26.30;20.75;;;;;;;14.62;74.97;99755.38;5064592;28;20032;-79
2021/04/29 01:00:52;;;;;;;29.30;21.25;;;;;;;14.67;74.75;99750.63;5057820;28;20566;-79
2021/04/29 01:03:40;;;;;;;22.27;20.15;;;;;;;14.45;75.95;99749.69;5064553;28;20083;-78
2021/04/29 01:06:16;;;;;;;25.88;22.67;;;;;;;14.16;76.87;99742.16;5060175;28;20492;-78
2021/04/29 01:08:58;;;;;;;27.70;24.77;;;;;;;14.02;77.46;99751.03;5061083;28;20365;-78
2021/04/29 01:11:27;;;;;;;26.73;22.33;;;;;;;14.14;77.26;99750.13;5064008;28;20044;-77
2021/04/29 01:13:56;;;;;;;26.13;23.55;;;;;;;14.26;76.41;99750.19;5060844;28;20049;-77
2021/04/29 01:16:24;;;;;;;28.20;23.70;;;;;;;14.12;77.17;99744.19;5061880;28;20456;-77
2021/04/29 01:18:53;;;;;;;28.85;24.02;;;;;;;14.16;77.68;99756.09;5064742;28;20059;-78
2021/04/29 01:21:21;;;;;;;24.33;21.48;;;;;;;14.36;76.46;99759.88;5063860;28;20131;-77
2021/04/29 01:23:58;;;;;;;25.58;22.48;;;;;;;14.49;75.76;99764.25;5063985;28;20406;-77
2021/04/29 01:26:36;;;;;;;24.40;21.92;;;;;;;14.60;75.11;99759.91;5067839;28;20072;-77
2021/04/29 01:29:06;;;;;;;21.75;19.60;;;;;;;14.65;74.96;99757.78;5059294;28;20116;-76
2021/04/29 01:31:36;;;;;;;23.77;21.35;;;;;;;14.36;76.15;99759.06;5067192;28;20036;-77
2021/04/29 01:34:05;;;;;;;27.02;24.30;;;;;;;14.24;77.49;99760.78;5062886;28;20399;-78
2021/04/29 01:36:33;;;;;;;23.77;21.48;;;;;;;14.24;77.31;99762.59;5061252;28;20072;-77
2021/04/29 01:39:05;;;;;;;23.20;20.80;;;;;;;14.32;76.98;99758.44;5063053;28;20044;-76
2021/04/29 01:41:32;;;;;;;24.50;21.90;;;;;;;14.33;76.90;99754.88;5059857;28;20068;-77
2021/04/29 01:44:00;;;;;;;26.60;21.35;;;;;;;14.24;77.81;99754.72;5061695;28;20064;-77
2021/04/29 01:46:27;;;;;;;23.20;20.80;;;;;;;14.23;77.55;99755.69;5068080;28;20033;-77
2021/04/29 01:48:54;;;;;;;24.90;22.10;;;;;;;14.29;77.37;99755.22;5061256;28;20048;-75
2021/04/29 01:51:22;;;;;;;23.15;20.77;;;;;;;14.34;77.16;99760.97;5077052;28;20043;-75
2021/04/29 01:53:49;;;;;;;22.90;20.52;;;;;;;14.31;77.33;99762.00;5062837;28;20041;-80
2021/04/29 01:56:16;;;;;;;24.75;22.10;;;;;;;14.37;77.00;99771.22;5065218;28;20076;-81
2021/04/29 01:58:42;;;;;;;25.83;20.92;;;;;;;14.36;77.15;99762.50;5067290;28;20123;-79
2021/04/29 02:01:08;;;;;;;26.77;23.98;;;;;;;14.33;77.65;99764.53;5061997;28;20048;-78
2021/04/29 02:03:35;;;;;;;24.40;21.80;;;;;;;14.30;77.71;99770.00;5061094;28;20053;-77
2021/04/29 02:06:01;;;;;;;23.55;21.25;;;;;;;14.26;78.06;99779.03;5058915;28;20032;-77
2021/04/29 02:08:28;;;;;;;27.23;22.17;;;;;;;14.37;77.09;99782.53;5065354;28;20072;-77
2021/04/29 02:10:55;;;;;;;24.02;20.25;;;;;;;14.35;76.95;99779.19;5064642;28;20075;-77
2021/04/29 02:13:23;;;;;;;26.70;20.80;;;;;;;14.27;77.74;99781.53;5060537;28;20033;-77
2021/04/29 02:15:56;;;;;;;23.20;20.90;;;;;;;14.29;77.46;99769.16;5065262;28;20368;-79
2021/04/29 02:18:23;;;;;;;23.08;20.58;;;;;;;14.29;77.58;99769.16;5065463;28;20108;-79
2021/04/29 02:20:51;;;;;;;24.23;21.40;;;;;;;14.27;77.86;99768.41;5068967;28;20124;-76
2021/04/29 02:23:23;;;;;;;23.58;21.08;;;;;;;14.30;77.51;99777.88;5060933;28;20130;-77
2021/04/29 02:25:53;;;;;;;25.17;22.52;;;;;;;14.30;77.35;99775.25;5061185;28;20045;-77
2021/04/29 02:28:20;;;;;;;23.52;20.70;;;;;;;14.45;76.84;99781.16;5060206;28;20140;-76
2021/04/29 02:30:48;;;;;;;25.45;22.75;;;;;;;14.33;77.43;99775.88;5063389;28;20499;-75
2021/04/29 02:33:16;;;;;;;26.27;23.48;;;;;;;14.32;77.47;99770.72;5057703;28;20037;-76
2021/04/29 02:35:45;;;;;;;25.42;22.38;;;;;;;14.38;77.35;99784.22;5062099;28;20039;-76
2021/04/29 02:38:16;;;;;;;28.60;25.75;;;;;;;14.32;77.73;99783.81;5059995;28;20064;-75
2021/04/29 02:40:44;;;;;;;27.27;23.20;;;;;;;14.29;77.74;99784.06;5062873;28;20111;-75
2021/04/29 02:43:14;;;;;;;27.63;24.88;;;;;;;14.28;78.35;99796.34;5062613;28;20064;-76
2021/04/29 02:45:43;;;;;;;30.45;25.45;;;;;;;14.34;77.77;99784.56;5061409;28;20415;-76
2021/04/29 02:48:14;;;;;;;33.30;27.75;;;;;;;14.29;77.75;99779.66;5065602;28;20120;-76
2021/04/29 02:50:45;;;;;;;29.13;26.15;;;;;;;14.21;78.52;99781.13;5060835;28;20507;-75
2021/04/29 02:53:16;;;;;;;30.70;26.70;;;;;;;14.30;78.35;99780.47;5063642;28;20064;-75
2021/04/29 02:55:45;;;;;;;32.20;26.88;;;;;;;14.32;78.34;99783.81;5063730;28;20443;-75
2021/04/29 02:58:15;;;;;;;30.02;26.88;;;;;;;14.44;77.54;99788.19;5061847;28;20037;-75
2021/04/29 03:00:43;;;;;;;34.25;28.70;;;;;;;14.45;77.57;99784.63;5064540;28;20061;-75
2021/04/29 03:03:10;;;;;;;32.25;27.58;;;;;;;14.40;77.90;99787.56;5059813;28;20155;-75
2021/04/29 03:05:37;;;;;;;38.63;27.60;;;;;;;14.34;78.09;99780.16;5062990;28;20119;-75
2021/04/29 03:08:05;;;;;;;30.05;26.85;;;;;;;14.37;77.86;99779.06;5060703;28;20045;-75
2021/04/29 03:10:32;;;;;;;30.15;25.13;;;;;;;14.32;78.34;99775.94;5059835;28;20039;-75
2021/04/29 03:13:02;;;;;;;34.58;29.50;;;;;;;14.36;78.01;99774.78;5061182;28;20439;-75
2021/04/29 03:15:28;;;;;;;30.13;26.90;;;;;;;14.36;77.94;99780.03;5061909;28;20127;-81
2021/04/29 03:17:55;;;;;;;38.97;27.85;;;;;;;14.37;77.82;99773.84;5060990;28;20036;-80
2021/04/29 03:20:35;;;;;;;34.08;27.63;;;;;;;14.38;77.96;99783.38;5060319;28;20442;-80
2021/04/29 03:23:02;;;;;;;26.63;23.88;;;;;;;14.38;77.81;99789.47;5058149;28;20033;-80
2021/04/29 03:25:29;;;;;;;31.50;27.00;;;;;;;14.43;77.65;99789.13;5060193;28;20049;-79
2021/04/29 03:27:55;;;;;;;27.10;24.30;;;;;;;14.39;77.85;99783.28;5064421;28;20123;-79
2021/04/29 03:30:22;;;;;;;28.95;25.95;;;;;;;14.28;78.64;99785.84;5069264;28;20131;-78
2021/04/29 03:32:48;;;;;;;32.40;25.45;;;;;;;14.38;78.33;99786.00;5065169;28;20025;-76
2021/04/29 03:35:15;;;;;;;32.17;28.45;;;;;;;14.33;78.78;99793.38;5061438;28;20049;-78
2021/04/29 03:37:41;;;;;;;31.02;27.52;;;;;;;14.39;78.00;99788.53;5063519;28;20045;-77
2021/04/29 03:40:09;;;;;;;34.85;29.00;;;;;;;14.35;78.65;99794.94;5061224;28;20049;-77
2021/04/29 03:42:35;;;;;;;32.70;27.92;;;;;;;14.45;78.12;99784.63;5058816;28;20086;-77
2021/04/29 03:45:04;;;;;;;32.35;28.25;;;;;;;14.46;77.91;99781.03;5063959;28;20052;-77
2021/04/29 03:47:31;;;;;;;35.63;30.42;;;;;;;14.49;77.73;99780.00;5061567;28;20041;-76
2021/04/29 03:49:58;;;;;;;33.85;29.25;;;;;;;14.41;77.92;99788.41;5056570;28;20055;-76
2021/04/29 03:52:24;;;;;;;32.65;28.38;;;;;;;14.34;78.78;99792.44;5066366;28;20142;-76
2021/04/29 03:54:50;;;;;;;31.00;27.27;;;;;;;14.32;78.60;99794.31;5062958;28;20127;-77
2021/04/29 03:57:17;;;;;;;37.38;30.48;;;;;;;14.36;78.58;99795.75;5065104;28;20075;-77
2021/04/29 03:59:43;;;;;;;34.22;30.50;;;;;;;14.42;78.11;99806.63;5064887;28;20572;-76
2021/04/29 04:02:11;;;;;;;34.75;31.02;;;;;;;14.44;78.25;99803.09;5067273;28;20032;-76
2021/04/29 04:04:37;;;;;;;34.78;29.77;;;;;;;14.46;77.73;99809.88;5066284;28;20063;-76
2021/04/29 04:07:04;;;;;;;41.13;33.53;;;;;;;14.45;77.98;99805.59;5062296;28;20047;-76
2021/04/29 04:09:30;;;;;;;35.30;30.30;;;;;;;14.45;77.89;99799.50;5065897;28;20178;-75
2021/04/29 04:11:57;;;;;;;37.55;31.13;;;;;;;14.38;78.67;99794.72;5068869;28;20110;-76
2021/04/29 04:14:23;;;;;;;38.17;29.90;;;;;;;14.36;78.80;99798.38;5067453;28;20048;-76
2021/04/29 04:16:49;;;;;;;35.80;30.38;;;;;;;14.32;79.24;99803.00;5066721;28;20132;-75
2021/04/29 04:19:16;;;;;;;51.85;32.92;;;;;;;14.36;78.96;99814.13;5064336;28;20056;-76
2021/04/29 04:21:42;;;;;;;37.25;33.33;;;;;;;14.36;78.59;99807.09;5062225;28;22550;-76
2021/04/29 04:24:09;;;;;;;37.75;33.70;;;;;;;14.36;78.96;99806.25;5061101;28;20106;-75
2021/04/29 04:26:35;;;;;;;37.72;33.67;;;;;;;14.41;78.59;99809.38;5062817;28;20090;-75
2021/04/29 04:29:02;;;;;;;38.35;34.38;;;;;;;14.39;78.85;99806.03;5065706;28;20044;-76
2021/04/29 04:31:29;;;;;;;38.72;34.47;;;;;;;14.37;79.02;99818.41;5060362;28;20032;-76
2021/04/29 04:33:55;;;;;;;34.95;30.70;;;;;;;14.48;78.21;99815.88;5064622;28;20133;-77
2021/04/29 04:36:22;;;;;;;34.72;29.67;;;;;;;14.42;78.27;99817.13;5067393;28;20033;-76
2021/04/29 04:38:48;;;;;;;42.13;32.28;;;;;;;14.27;79.18;99818.22;5070293;28;20048;-77
2021/04/29 04:41:17;;;;;;;33.13;28.88;;;;;;;14.27;79.34;99820.03;5069914;28;20049;-76
2021/04/29 04:43:43;;;;;;;33.60;29.98;;;;;;;14.28;79.58;99819.94;5074289;28;20075;-77
2021/04/29 04:46:09;;;;;;;34.50;30.85;;;;;;;14.36;78.65;99808.88;5070358;28;20065;-78
2021/04/29 04:48:36;;;;;;;45.17;30.50;;;;;;;14.45;77.90;99813.47;5073994;28;20044;-77
2021/04/29 04:51:03;;;;;;;31.88;28.48;;;;;;;14.39;78.87;99808.66;5074474;28;20086;-77
2021/04/29 04:53:29;;;;;;;34.75;30.95;;;;;;;14.42;78.82;99805.81;5063785;28;20480;-76
2021/04/29 04:55:56;;;;;;;35.20;30.83;;;;;;;14.36;79.29;99808.88;5067989;28;20124;-76
2021/04/29 04:58:23;;;;;;;45.90;34.53;;;;;;;14.53;78.09;99812.91;5069814;28;20044;-78
2021/04/29 05:00:49;;;;;;;34.47;30.33;;;;;;;14.55;78.02;99817.13;5070552;28;20044;-77
2021/04/29 05:03:17;;;;;;;35.20;30.58;;;;;;;14.50;78.02;99814.00;5070807;28;20553;-76
2021/04/29 05:05:45;;;;;;;44.28;33.00;;;;;;;14.45;78.48;99818.69;5070896;28;20059;-78
2021/04/29 05:08:12;;;;;;;37.03;30.88;;;;;;;14.36;79.30;99817.56;5072044;28;20047;-77
2021/04/29 05:10:38;;;;;;;41.83;32.88;;;;;;;14.48;78.90;99821.13;5072989;28;20119;-78
2021/04/29 05:13:05;;;;;;;44.42;32.22;;;;;;;14.57;78.53;99820.44;5072532;28;20128;-77
2021/04/29 05:15:33;;;;;;;36.33;32.42;;;;;;;14.54;78.92;99818.06;5068281;28;20045;-79
2021/04/29 05:18:00;;;;;;;41.72;34.25;;;;;;;14.59;78.65;99813.28;5069059;28;20499;-76
2021/04/29 05:20:27;;;;;;;41.42;34.60;;;;;;;14.63;78.69;99817.38;5062913;28;20037;-74
2021/04/29 05:22:53;;;;;;;44.00;39.13;;;;;;;14.68;78.22;99817.88;5068404;28;20067;-74
2021/04/29 05:25:22;;;;;;;38.95;34.83;;;;;;;14.69;78.51;99813.47;5071504;28;20143;-75
2021/04/29 05:27:53;;;;;;;43.92;39.17;;;;;;;14.63;78.79;99811.28;5072591;28;20041;-72
2021/04/29 05:30:20;;;;;;;43.78;38.10;;;;;;;14.73;78.40;99811.47;5072001;28;20078;-74
2021/04/29 05:32:47;;;;;;;49.90;42.15;;;;;;;14.60;78.86;99822.88;5067097;28;20095;-73
2021/04/29 05:35:15;;;;;;;53.05;39.92;;;;;;;14.51;79.86;99823.53;5066096;28;20572;-72
2021/04/29 05:37:41;;;;;;;46.40;41.22;;;;;;;14.53;79.82;99820.78;5067064;28;20110;-73
2021/04/29 05:40:08;;;;;;;46.28;40.20;;;;;;;14.71;79.24;99826.50;5072626;28;20544;-72
2021/04/29 05:42:35;;;;;;;47.00;40.60;;;;;;;14.61;79.65;99831.56;5069572;28;20036;-74
2021/04/29 05:45:02;;;;;;;46.08;41.08;;;;;;;14.62;79.98;99833.25;5070301;28;20128;-74
2021/04/29 05:47:29;;;;;;;43.83;38.85;;;;;;;14.85;79.20;99845.47;5067975;28;20106;-73
2021/04/29 05:49:55;;;;;;;48.67;41.38;;;;;;;14.71;79.33;99845.69;5068454;28;20063;-73
2021/04/29 05:52:22;;;;;;;48.35;43.22;;;;;;;14.82;79.74;99842.28;5070609;28;20073;-73
2021/04/29 05:54:48;;;;;;;52.38;41.60;;;;;;;14.86;79.22;99838.44;5070493;28;20048;-74
2021/04/29 05:57:15;;;;;;;50.08;44.00;;;;;;;14.90;78.55;99847.78;5070823;28;20125;-72
2021/04/29 05:59:41;;;;;;;48.40;39.88;;;;;;;15.00;78.42;99842.69;5070661;28;20102;-68
2021/04/29 06:02:07;;;;;;;49.78;43.50;;;;;;;15.00;78.17;99837.44;5070302;28;20120;-71
2021/04/29 06:04:41;;;;;;;51.22;43.63;;;;;;;15.03;78.27;99843.31;5072691;28;20411;-72
2021/04/29 06:11:08;;;;;;;49.55;40.08;;;;;;;15.04;78.40;99849.38;5072476;28;20041;-75
2021/04/29 06:13:34;;;;;;;45.42;40.65;;;;;;;15.09;78.08;99840.22;5071946;28;20098;-73
2021/04/29 06:16:01;;;;;;;45.85;40.13;;;;;;;15.10;78.39;99843.66;5072772;28;20398;-72
2021/04/29 06:18:28;;;;;;;46.60;40.33;;;;;;;15.16;78.09;99849.28;5071401;28;20514;-73
2021/04/29 06:20:55;;;;;;;59.58;41.22;;;;;;;15.20;77.87;99847.28;5072084;28;20045;-73
2021/04/29 06:23:21;;;;;;;46.83;41.83;;;;;;;15.07;78.01;99849.97;5059503;28;20041;-73
2021/04/29 06:25:47;;;;;;;47.50;40.33;;;;;;;15.11;78.22;99851.41;5063833;28;20399;-73
2021/04/29 06:28:14;;;;;;;49.85;42.00;;;;;;;15.07;78.97;99849.97;5066094;28;20032;-73
2021/04/29 06:30:41;;;;;;;46.80;41.20;;;;;;;14.87;79.70;99848.03;5065106;28;20036;-73
2021/04/29 06:33:09;;;;;;;49.28;43.65;;;;;;;14.96;79.50;99846.47;5069047;28;20045;-73
2021/04/29 06:35:35;;;;;;;48.00;42.00;;;;;;;15.04;79.21;99834.47;5067271;28;20445;-73
2021/04/29 06:38:02;;;;;;;54.40;46.72;;;;;;;15.15;78.79;99836.28;5070867;28;20048;-73
2021/04/29 06:40:28;;;;;;;61.65;47.38;;;;;;;15.01;79.64;99846.97;5071066;28;20052;-73
2021/04/29 06:42:55;;;;;;;53.28;45.38;;;;;;;15.01;79.46;99841.72;5065921;28;20506;-73
2021/04/29 06:45:22;;;;;;;49.47;44.10;;;;;;;15.10;79.72;99852.38;5064030;28;20087;-73
2021/04/29 06:47:49;;;;;;;51.33;40.80;;;;;;;15.17;78.46;99853.59;5062202;28;20040;-73
2021/04/29 06:50:15;;;;;;;49.88;41.28;;;;;;;15.35;77.86;99855.78;5060251;28;20479;-73
2021/04/29 06:52:42;;;;;;;52.35;44.15;;;;;;;15.17;79.86;99858.84;5057195;28;20090;-73
2021/04/29 06:55:09;;;;;;;55.58;44.40;;;;;;;15.31;79.12;99849.94;5060562;28;20072;-73
2021/04/29 06:57:35;;;;;;;53.20;46.13;;;;;;;15.41;77.80;99845.66;5062184;28;20047;-73
2021/04/29 07:00:03;;;;;;;56.95;47.22;;;;;;;15.42;77.57;99847.31;5061130;28;20037;-73
2021/04/29 07:02:29;;;;;;;54.92;47.95;;;;;;;15.58;76.26;99852.22;5063394;28;20056;-73
2021/04/29 07:05:01;;;;;;;54.03;47.38;;;;;;;15.85;75.72;99853.72;5060973;28;20068;-73
2021/04/29 07:07:28;;;;;;;59.47;48.60;;;;;;;16.01;75.07;99851.56;5062537;28;20387;-73
2021/04/29 07:09:54;;;;;;;51.95;44.38;;;;;;;15.89;75.90;99853.34;5058752;28;20070;-73
2021/04/29 07:12:21;;;;;;;57.17;49.67;;;;;;;16.11;75.10;99856.91;5058159;28;20048;-73
2021/04/29 07:14:48;;;;;;;54.58;46.92;;;;;;;16.48;74.47;99854.81;5052521;28;20041;-73
2021/04/29 07:17:14;;;;;;;55.85;47.30;;;;;;;16.46;73.39;99862.00;5054901;28;20037;-73
2021/04/29 07:19:41;;;;;;;51.70;43.95;;;;;;;16.80;73.14;99856.66;5063706;28;20032;-73
2021/04/29 07:22:07;;;;;;;51.80;44.83;;;;;;;17.19;71.74;99852.50;5059879;28;20467;-73
2021/04/29 07:24:35;;;;;;;48.38;43.17;;;;;;;17.53;70.73;99851.34;5063101;28;20041;-73
2021/04/29 07:27:03;;;;;;;52.58;45.22;;;;;;;17.69;69.56;99848.25;5061874;28;20051;-73
2021/04/29 07:29:32;;;;;;;57.67;50.10;;;;;;;17.54;69.42;99858.28;5059630;28;20033;-73
2021/04/29 07:32:00;;;;;;;57.10;48.38;;;;;;;17.21;69.96;99864.59;5062866;28;20176;-73
2021/04/29 07:34:27;;;;;;;62.40;52.20;;;;;;;16.75;71.52;99857.88;5063842;28;20456;-73
2021/04/29 07:36:53;;;;;;;60.55;52.40;;;;;;;16.62;72.33;99857.19;5064199;28;20095;-73
2021/04/29 07:39:20;;;;;;;59.42;50.13;;;;;;;16.82;71.85;99860.00;5066927;28;20071;-73
2021/04/29 07:41:46;;;;;;;61.47;54.58;;;;;;;16.86;70.42;99864.88;5061120;28;20087;-73
2021/04/29 07:44:15;;;;;;;58.25;51.58;;;;;;;16.90;71.15;99861.03;5070548;28;20450;-73
2021/04/29 07:46:42;;;;;;;53.88;47.17;;;;;;;16.82;71.73;99860.81;5064132;28;20153;-73
2021/04/29 07:49:09;;;;;;;58.03;50.08;;;;;;;16.58;72.38;99866.28;5063889;28;20052;-73
2021/04/29 07:51:36;;;;;;;59.40;47.83;;;;;;;16.41;73.54;99867.63;5063359;28;20028;-74
2021/04/29 07:54:04;;;;;;;52.53;46.75;;;;;;;16.33;73.49;99863.94;5063838;28;20491;-72
2021/04/29 07:56:31;;;;;;;50.92;45.65;;;;;;;16.46;73.11;99860.22;5061321;28;20162;-73
2021/04/29 07:58:57;;;;;;;56.83;46.42;;;;;;;16.63;73.07;99869.38;5064148;28;20060;-73
2021/04/29 08:01:24;;;;;;;54.25;48.42;;;;;;;16.60;73.53;99866.16;5064113;28;20048;-73
2021/04/29 08:03:50;;;;;;;52.63;45.67;;;;;;;16.50;74.62;99866.03;5062261;28;20132;-73
2021/04/29 08:06:16;;;;;;;55.47;49.42;;;;;;;16.55;74.28;99866.50;5065936;28;20120;-73
2021/04/29 08:08:43;;;;;;;58.50;50.28;;;;;;;16.44;74.21;99869.16;5062696;28;20052;-73
2021/04/29 08:11:14;;;;;;;58.72;50.17;;;;;;;16.55;74.13;99870.94;5060035;28;20117;-73
2021/04/29 08:13:42;;;;;;;56.70;46.70;;;;;;;16.56;74.13;99870.81;5063134;28;20036;-73
2021/04/29 08:16:09;;;;;;;54.40;46.40;;;;;;;16.57;74.51;99863.78;5066649;28;20071;-73
2021/04/29 08:18:35;;;;;;;53.83;46.13;;;;;;;16.63;74.12;99874.63;5066139;28;20094;-73
2021/04/29 08:21:03;;;;;;;59.05;46.47;;;;;;;16.70;72.83;99875.81;5059786;28;20452;-73
2021/04/29 08:23:30;;;;;;;51.15;45.20;;;;;;;16.49;73.09;99878.38;5065235;28;20067;-73
2021/04/29 08:25:57;;;;;;;50.38;44.83;;;;;;;16.66;72.62;99881.44;5062274;28;20131;-73
2021/04/29 08:28:23;;;;;;;48.80;43.45;;;;;;;16.66;72.57;99878.81;5067188;28;20041;-73
2021/04/29 08:30:50;;;;;;;47.58;42.25;;;;;;;16.69;72.66;99878.56;5061227;28;20123;-72
2021/04/29 08:33:16;;;;;;;49.40;44.03;;;;;;;16.64;72.39;99886.00;5062298;28;20414;-72
2021/04/29 08:35:43;;;;;;;46.40;40.20;;;;;;;16.67;72.56;99885.72;5065113;28;20036;-73
2021/04/29 08:38:09;;;;;;;45.28;38.78;;;;;;;16.49;73.06;99891.53;5064284;28;22322;-73
2021/04/29 08:40:36;;;;;;;51.35;40.72;;;;;;;16.47;73.20;99887.34;5062022;28;20052;-73
2021/04/29 08:43:02;;;;;;;47.00;42.10;;;;;;;16.32;74.05;99886.78;5062329;28;20040;-73
2021/04/29 08:45:29;;;;;;;48.20;42.85;;;;;;;16.34;74.07;99887.47;5063780;28;20135;-73
2021/04/29 08:47:57;;;;;;;56.80;47.95;;;;;;;16.33;73.89;99882.34;5058031;28;20037;-73
2021/04/29 08:50:26;;;;;;;55.95;47.15;;;;;;;16.52;74.06;99893.09;5061326;28;20112;-73
2021/04/29 08:52:53;;;;;;;64.57;51.35;;;;;;;16.44;73.66;99890.22;5063758;28;20040;-71
2021/04/29 08:55:23;;;;;;;59.53;49.78;;;;;;;16.50;73.75;99887.09;5059938;28;20037;-70
2021/04/29 08:57:54;;;;;;;64.32;50.75;;;;;;;16.37;74.78;99886.41;5063784;28;20040;-73
2021/04/29 09:00:22;;;;;;;71.50;52.47;;;;;;;16.33;75.33;99892.88;5059132;28;20041;-73
2021/04/29 09:02:49;;;;;;;66.35;56.45;;;;;;;16.48;74.53;99894.28;5059772;28;20132;-73
2021/04/29 09:05:21;;;;;;;66.38;52.58;;;;;;;16.61;73.75;99888.88;5058979;28;20066;-73
2021/04/29 09:08:08;;;;;;;56.05;46.00;;;;;;;16.51;75.13;99888.75;5062361;28;20044;-73
2021/04/29 09:10:40;;;;;;;51.03;43.33;;;;;;;16.53;75.54;99889.50;5058172;28;20045;-72
2021/04/29 09:13:20;;;;;;;57.58;43.67;;;;;;;16.57;75.31;99890.94;5058187;28;20133;-73
2021/04/29 09:15:48;;;;;;;49.30;40.78;;;;;;;16.47;75.35;99896.09;5062032;28;20048;-73
2021/04/29 09:18:17;;;;;;;48.47;40.78;;;;;;;16.53;75.32;99902.66;5061185;28;20072;-72
2021/04/29 09:20:57;;;;;;;52.28;40.92;;;;;;;16.59;74.58;99901.31;5062423;28;20033;-73
2021/04/29 09:23:26;;;;;;;47.35;41.97;;;;;;;16.62;74.57;99893.16;5061963;28;20102;-73
2021/04/29 09:26:14;;;;;;;44.75;39.90;;;;;;;16.65;74.15;99899.03;5062093;28;20560;-73
2021/04/29 09:28:44;;;;;;;51.10;44.28;;;;;;;16.69;73.83;99903.09;5062067;28;20566;-73
2021/04/29 09:31:18;;;;;;;44.72;36.25;;;;;;;16.76;73.93;99900.81;5056853;28;20483;-73
2021/04/29 09:33:47;;;;;;;50.60;41.80;;;;;;;16.81;74.06;99900.44;5062021;28;20052;-73
2021/04/29 09:36:24;;;;;;;53.25;42.60;;;;;;;16.61;73.87;99900.22;5061035;28;20045;-73
2021/04/29 09:38:54;;;;;;;56.83;44.90;;;;;;;16.74;73.55;99897.47;5060358;28;20132;-73
2021/04/29 09:41:23;;;;;;;51.75;42.90;;;;;;;16.85;72.89;99893.97;5064087;28;20079;-73
2021/04/29 09:43:59;;;;;;;63.35;47.70;;;;;;;16.96;72.51;99891.31;5061842;28;20131;-73
2021/04/29 09:46:46;;;;;;;59.67;48.00;;;;;;;17.07;72.40;99893.88;5062286;28;20044;-73
2021/04/29 09:49:24;;;;;;;52.72;47.03;;;;;;;17.03;72.13;99895.09;5059843;28;20501;-73
2021/04/29 09:51:53;;;;;;;56.30;47.78;;;;;;;17.03;73.10;99888.03;5062439;28;20090;-72
2021/04/29 09:54:35;;;;;;;57.58;46.75;;;;;;;17.06;72.73;99886.13;5061686;28;20090;-73
2021/04/29 09:57:06;;;;;;;55.55;44.92;;;;;;;17.00;72.78;99877.75;5056575;28;20049;-73
2021/04/29 09:59:49;;;;;;;60.63;42.45;;;;;;;17.00;71.89;99885.66;5059435;28;20506;-73
2021/04/29 10:02:17;;;;;;;40.40;33.78;;;;;;;16.98;71.23;99887.56;5057476;28;20462;-72
2021/04/29 10:04:45;;;;;;;41.45;33.47;;;;;;;17.12;71.72;99888.25;5055966;28;20045;-72
2021/04/29 10:07:18;;;;;;;36.90;31.38;;;;;;;17.06;71.63;99886.13;5063411;28;20040;-72
2021/04/29 10:09:46;;;;;;;34.85;31.08;;;;;;;16.99;72.45;99889.25;5057737;28;20032;-72
2021/04/29 10:12:14;;;;;;;30.98;27.63;;;;;;;17.03;71.45;99881.91;5058982;28;20069;-72
2021/04/29 10:14:46;;;;;;;32.97;26.73;;;;;;;17.08;71.36;99892.91;5061299;28;20557;-73
2021/04/29 10:17:15;;;;;;;34.78;26.20;;;;;;;17.08;71.70;99889.44;5061125;28;20032;-71
2021/04/29 10:19:44;;;;;;;27.20;24.48;;;;;;;17.06;72.21;99889.59;5062980;28;20454;-72
2021/04/29 10:22:15;;;;;;;22.75;20.33;;;;;;;17.00;70.89;99892.72;5058675;28;20101;-72
2021/04/29 10:24:44;;;;;;;24.85;21.30;;;;;;;16.97;70.49;99892.97;5061800;28;20040;-74
2021/04/29 10:27:12;;;;;;;23.80;19.00;;;;;;;17.00;70.56;99892.72;5059744;28;20491;-72
2021/04/29 10:29:39;;;;;;;23.52;19.63;;;;;;;17.11;70.83;99892.66;5062278;28;20039;-75
2021/04/29 10:32:14;;;;;;;27.20;23.48;;;;;;;17.13;71.04;99892.53;5059547;28;20098;-74
2021/04/29 10:34:44;;;;;;;24.35;21.80;;;;;;;17.24;70.08;99887.22;5058313;28;20036;-75
2021/04/29 10:37:19;;;;;;;33.90;27.65;;;;;;;17.10;70.46;99883.09;5059478;28;20048;-74
2021/04/29 10:39:57;;;;;;;36.10;27.40;;;;;;;17.10;72.39;99883.09;5059615;28;20076;-74
2021/04/29 10:42:28;;;;;;;31.08;26.75;;;;;;;17.10;73.04;99882.25;5062143;28;20423;-74
2021/04/29 10:45:09;;;;;;;27.08;23.85;;;;;;;17.16;73.41;99877.31;5063184;28;20372;-73
2021/04/29 10:47:37;;;;;;;27.77;24.25;;;;;;;17.23;72.07;99873.22;5060718;28;20044;-74
2021/04/29 10:50:19;;;;;;;30.15;24.27;;;;;;;17.31;71.90;99871.72;5059647;28;20045;-74
2021/04/29 10:52:55;;;;;;;27.60;24.88;;;;;;;17.37;70.93;99869.44;5062255;28;20190;-74
2021/04/29 10:55:30;;;;;;;26.67;23.98;;;;;;;17.41;70.74;99872.63;5057665;28;20479;-74
2021/04/29 10:57:58;;;;;;;31.08;25.30;;;;;;;17.48;71.81;99868.53;5056693;28;20155;-73
2021/04/29 11:00:30;;;;;;;32.15;28.88;;;;;;;17.58;70.74;99879.97;5062773;28;20049;-74
2021/04/29 11:03:02;;;;;;;31.73;28.27;;;;;;;17.66;70.34;99880.13;5063244;28;20041;-74
2021/04/29 11:05:34;;;;;;;31.20;27.92;;;;;;;17.72;70.89;99879.63;5066029;28;20475;-74
2021/04/29 11:08:05;;;;;;;30.85;27.77;;;;;;;17.75;70.59;99874.09;5066847;28;20052;-74
2021/04/29 11:10:37;;;;;;;30.98;27.67;;;;;;;17.67;70.64;99878.31;5065339;28;20090;-74
2021/04/29 11:13:07;;;;;;;31.42;26.98;;;;;;;17.72;71.43;99877.00;5064522;28;20037;-74
2021/04/29 11:15:39;;;;;;;28.05;25.27;;;;;;;17.91;71.44;99860.44;5066588;28;20564;-74
2021/04/29 11:18:19;;;;;;;28.45;25.13;;;;;;;17.97;71.24;99856.44;5061874;28;20119;-73
2021/04/29 11:21:04;;;;;;;30.67;20.45;;;;;;;18.18;70.71;99853.72;5067759;28;20040;-73
2021/04/29 11:23:39;;;;;;;25.65;22.90;;;;;;;18.42;69.03;99856.81;5066954;28;20048;-73
2021/04/29 11:26:07;;;;;;;31.98;27.95;;;;;;;18.42;69.44;99856.81;5067517;28;20044;-73
2021/04/29 11:28:34;;;;;;;30.40;27.25;;;;;;;18.35;69.34;99847.78;5063606;28;20041;-73